createdAt,value
2017-10-13T00:00:40.039Z,10.92
2017-10-13T00:01:50.258Z,10.9
2017-10-13T00:03:00.233Z,10.9
2017-10-13T00:04:10.213Z,10.9
2017-10-13T00:05:20.515Z,10.98
2017-10-13T00:06:30.808Z,10.94
2017-10-13T00:07:41.347Z,10.94
2017-10-13T00:08:51.651Z,10.95
2017-10-13T00:10:01.967Z,10.98
2017-10-13T00:11:11.939Z,10.95
2017-10-13T00:12:22.244Z,10.97
2017-10-13T00:13:32.786Z,10.98
2017-10-13T00:14:43.076Z,10.9
2017-10-13T00:15:53.384Z,10.98
2017-10-13T00:17:03.675Z,11.01
2017-10-13T00:18:13.972Z,11.01
2017-10-13T00:19:24.517Z,10.95
2017-10-13T00:20:34.500Z,10.98
2017-10-13T00:21:44.461Z,11.02
2017-10-13T00:22:54.429Z,10.98
2017-10-13T00:24:04.072Z,11.01
2017-10-13T00:25:13.635Z,11.1
2017-10-13T00:26:23.598Z,11.01
2017-10-13T00:27:33.605Z,11
2017-10-13T00:28:43.913Z,10.98
2017-10-13T00:29:54.206Z,10.97
2017-10-13T00:31:04.744Z,10.95
2017-10-13T00:32:14.719Z,11.02
2017-10-13T00:33:25.013Z,10.97
2017-10-13T00:34:35.310Z,10.97
2017-10-13T00:35:45.604Z,11.05
2017-10-13T00:36:55.519Z,11.01
2017-10-13T00:38:05.185Z,10.97
2017-10-13T00:39:15.152Z,11.1
2017-10-13T00:40:25.457Z,10.95
2017-10-13T00:41:35.744Z,11.05
2017-10-13T00:42:46.289Z,11.08
2017-10-13T00:43:56.593Z,11.07
2017-10-13T00:45:06.884Z,11.02
2017-10-13T00:46:17.182Z,11.07
2017-10-13T00:47:27.477Z,11.12
2017-10-13T00:48:38.011Z,11.13
2017-10-13T00:49:48.297Z,11.13
2017-10-13T00:50:58.588Z,11.05
2017-10-13T00:52:08.555Z,11.05
2017-10-13T00:53:18.841Z,11.18
2017-10-13T00:54:29.123Z,11.05
2017-10-13T00:55:39.087Z,11.1
2017-10-13T00:56:49.047Z,11.16
2017-10-13T00:57:59.011Z,11.12
2017-10-13T00:59:09.328Z,11.18
2017-10-13T01:00:19.910Z,11.08
2017-10-13T01:01:30.207Z,11.07
2017-10-13T01:02:40.503Z,11.1
2017-10-13T01:03:50.800Z,11.08
2017-10-13T01:05:01.087Z,11.02
2017-10-13T01:06:11.627Z,11.04
2017-10-13T01:07:21.914Z,11.08
2017-10-13T01:08:32.195Z,11.05
2017-10-13T01:09:42.161Z,11.12
2017-10-13T01:10:52.463Z,11.01
2017-10-13T01:12:02.351Z,11.04
2017-10-13T01:13:12.316Z,11.07
2017-10-13T01:14:22.607Z,11.05
2017-10-13T01:15:32.897Z,11.08
2017-10-13T01:16:43.185Z,11.07
2017-10-13T01:17:53.737Z,11.04
2017-10-13T01:19:04.033Z,11.05
2017-10-13T01:20:14.334Z,11.02
2017-10-13T01:21:24.291Z,11.07
2017-10-13T01:22:33.931Z,11.07
2017-10-13T01:23:44.474Z,11.02
2017-10-13T01:24:54.442Z,11.04
2017-10-13T01:26:04.731Z,11.12
2017-10-13T01:27:15.025Z,11.02
2017-10-13T01:28:25.331Z,11
2017-10-13T01:29:35.544Z,11.08
2017-10-13T01:30:45.864Z,11.04
2017-10-13T01:31:56.169Z,11.07
2017-10-13T01:33:06.477Z,11
2017-10-13T01:34:16.772Z,11.01
2017-10-13T01:35:27.306Z,11.04
2017-10-13T01:36:37.600Z,11.08
2017-10-13T01:37:47.902Z,11.01
2017-10-13T01:38:58.212Z,11.05
2017-10-13T01:40:08.197Z,11.08
2017-10-13T01:41:18.405Z,11.08
2017-10-13T01:42:28.377Z,11.1
2017-10-13T01:43:38.346Z,11.13
2017-10-13T01:44:48.309Z,11.13
2017-10-13T01:45:58.595Z,11.07
2017-10-13T01:47:08.808Z,11.04
2017-10-13T01:48:19.089Z,11.05
2017-10-13T01:49:29.395Z,11.02
2017-10-13T01:50:39.684Z,11.01
2017-10-13T01:51:49.981Z,11.08
2017-10-13T01:53:00.586Z,11.08
2017-10-13T01:54:10.877Z,11.07
2017-10-13T01:55:20.845Z,11.15
2017-10-13T01:56:30.484Z,11.12
2017-10-13T01:57:40.783Z,11.15
2017-10-13T01:58:50.996Z,11.05
2017-10-13T02:00:00.979Z,11.1
2017-10-13T02:01:11.277Z,11.08
2017-10-13T02:02:21.563Z,11.07
2017-10-13T02:03:31.850Z,11.08
2017-10-13T02:04:42.404Z,11.18
2017-10-13T02:05:52.693Z,11.12
2017-10-13T02:07:03.002Z,11.16
2017-10-13T02:08:12.974Z,11.12
2017-10-13T02:09:22.941Z,11.19
2017-10-13T02:10:33.487Z,11.15
2017-10-13T02:11:43.774Z,11.13
2017-10-13T02:12:53.748Z,11.15
2017-10-13T02:14:04.066Z,11.16
2017-10-13T02:15:14.045Z,11.07
2017-10-13T02:16:24.586Z,11.2
2017-10-13T02:17:34.870Z,11.18
2017-10-13T02:18:45.174Z,11.2
2017-10-13T02:19:55.131Z,11.18
2017-10-13T02:21:05.439Z,11.18
2017-10-13T02:22:15.987Z,11.19
2017-10-13T02:23:26.276Z,11.22
2017-10-13T02:24:36.563Z,11.15
2017-10-13T02:25:46.539Z,11.25
2017-10-13T02:26:56.826Z,11.25
2017-10-13T02:28:07.100Z,11.25
2017-10-13T02:29:17.405Z,11.19
2017-10-13T02:30:27.689Z,11.3
2017-10-13T02:31:37.968Z,11.31
2017-10-13T02:32:47.614Z,11.26
2017-10-13T02:33:57.520Z,11.3
2017-10-13T02:35:07.488Z,11.26
2017-10-13T02:36:17.802Z,11.3
2017-10-13T02:37:28.101Z,11.23
2017-10-13T02:38:38.403Z,11.2
2017-10-13T02:39:48.947Z,11.2
2017-10-13T02:40:59.239Z,11.23
2017-10-13T02:42:08.879Z,11.19
2017-10-13T02:43:18.843Z,11.19
2017-10-13T02:44:29.134Z,11.18
2017-10-13T02:45:39.697Z,11.27
2017-10-13T02:46:49.660Z,11.25
2017-10-13T02:47:59.958Z,11.25
2017-10-13T02:49:10.266Z,11.26
2017-10-13T02:50:19.910Z,11.2
2017-10-13T02:51:30.452Z,11.26
2017-10-13T02:52:40.745Z,11.22
2017-10-13T02:53:51.041Z,11.22
2017-10-13T02:55:01.012Z,11.19
2017-10-13T02:56:11.306Z,11.22
2017-10-13T02:57:21.850Z,11.2
2017-10-13T02:58:32.148Z,11.25
2017-10-13T02:59:42.437Z,11.23
2017-10-13T03:00:52.401Z,11.3
2017-10-13T03:02:02.693Z,11.23
2017-10-13T03:03:13.297Z,11.23
2017-10-13T03:04:23.262Z,11.23
2017-10-13T03:05:33.546Z,11.23
2017-10-13T03:06:43.846Z,11.22
2017-10-13T03:07:54.133Z,11.23
2017-10-13T03:09:04.024Z,11.19
2017-10-13T03:10:14.331Z,11.22
2017-10-13T03:11:24.633Z,11.26
2017-10-13T03:12:34.606Z,11.23
2017-10-13T03:13:44.254Z,11.23
2017-10-13T03:14:54.160Z,11.18
2017-10-13T03:16:04.451Z,11.25
2017-10-13T03:17:14.741Z,11.2
2017-10-13T03:18:25.043Z,11.19
2017-10-13T03:19:35.336Z,11.13
2017-10-13T03:20:45.950Z,11.12
2017-10-13T03:21:56.235Z,11.18
2017-10-13T03:23:06.529Z,11.02
2017-10-13T03:24:16.821Z,11.12
2017-10-13T03:25:27.107Z,11.01
2017-10-13T03:26:37.325Z,11.12
2017-10-13T03:27:47.615Z,10.95
2017-10-13T03:28:57.590Z,11
2017-10-13T03:30:07.563Z,11.02
2017-10-13T03:31:17.872Z,11.02
2017-10-13T03:32:28.100Z,11.07
2017-10-13T03:33:38.387Z,10.97
2017-10-13T03:34:48.679Z,10.98
2017-10-13T03:35:58.962Z,10.95
2017-10-13T03:37:09.254Z,10.97
2017-10-13T03:38:19.477Z,10.97
2017-10-13T03:39:29.784Z,10.87
2017-10-13T03:40:40.064Z,10.89
2017-10-13T03:41:50.356Z,10.87
2017-10-13T03:43:00.332Z,10.86
2017-10-13T03:44:10.868Z,10.83
2017-10-13T03:45:20.838Z,10.79
2017-10-13T03:46:30.799Z,10.87
2017-10-13T03:47:41.088Z,10.75
2017-10-13T03:48:51.385Z,10.75
2017-10-13T03:50:01.938Z,10.75
2017-10-13T03:51:12.234Z,10.77
2017-10-13T03:52:22.212Z,10.82
2017-10-13T03:53:32.175Z,10.76
2017-10-13T03:54:42.486Z,10.77
2017-10-13T03:55:53.045Z,10.72
2017-10-13T03:57:03.336Z,10.82
2017-10-13T03:58:13.632Z,10.64
2017-10-13T03:59:23.924Z,10.71
2017-10-13T04:00:34.216Z,10.68
2017-10-13T04:01:44.775Z,10.65
2017-10-13T04:02:54.411Z,10.59
2017-10-13T04:04:04.693Z,10.61
2017-10-13T04:05:14.663Z,10.62
2017-10-13T04:06:24.970Z,10.64
2017-10-13T04:07:35.512Z,10.59
2017-10-13T04:08:45.804Z,10.62
2017-10-13T04:09:56.110Z,10.59
2017-10-13T04:11:06.084Z,10.55
2017-10-13T04:12:16.386Z,10.61
2017-10-13T04:13:26.602Z,10.62
2017-10-13T04:14:36.587Z,10.57
2017-10-13T04:15:46.877Z,10.58
2017-10-13T04:16:57.200Z,10.59
2017-10-13T04:18:07.500Z,10.68
2017-10-13T04:19:18.057Z,10.59
2017-10-13T04:20:28.347Z,10.65
2017-10-13T04:21:38.335Z,10.62
2017-10-13T04:22:48.627Z,10.62
2017-10-13T04:23:58.940Z,10.59
2017-10-13T04:25:09.484Z,10.62
2017-10-13T04:26:19.792Z,10.61
2017-10-13T04:27:30.321Z,10.61
2017-10-13T04:28:40.815Z,10.48
2017-10-13T04:29:50.787Z,10.51
2017-10-13T04:31:01.336Z,10.51
2017-10-13T04:32:11.651Z,10.53
2017-10-13T04:33:21.615Z,10.53
2017-10-13T04:34:31.596Z,10.59
2017-10-13T04:35:41.892Z,10.58
2017-10-13T04:36:52.438Z,10.55
2017-10-13T04:38:02.717Z,10.57
2017-10-13T04:39:12.684Z,10.58
2017-10-13T04:40:22.651Z,10.55
2017-10-13T04:41:32.958Z,10.53
2017-10-13T04:42:43.205Z,10.58
2017-10-13T04:43:53.517Z,10.55
2017-10-13T04:45:03.821Z,10.53
2017-10-13T04:46:13.474Z,10.58
2017-10-13T04:47:23.765Z,10.55
2017-10-13T04:48:34.318Z,10.49
2017-10-13T04:49:44.283Z,10.45
2017-10-13T04:50:54.570Z,10.46
2017-10-13T04:52:04.862Z,10.45
2017-10-13T04:53:15.197Z,10.42
2017-10-13T04:54:25.753Z,10.42
2017-10-13T04:55:35.390Z,10.45
2017-10-13T04:56:45.679Z,10.42
2017-10-13T04:57:56.000Z,10.42
2017-10-13T04:59:05.980Z,10.38
2017-10-13T05:00:16.519Z,10.36
2017-10-13T05:01:26.491Z,10.41
2017-10-13T05:02:36.812Z,10.33
2017-10-13T05:03:47.107Z,10.36
2017-10-13T05:04:57.607Z,10.38
2017-10-13T05:06:08.150Z,10.39
2017-10-13T05:07:18.123Z,10.36
2017-10-13T05:08:28.414Z,10.27
2017-10-13T05:09:38.399Z,10.28
2017-10-13T05:10:48.371Z,10.36
2017-10-13T05:11:58.965Z,10.21
2017-10-13T05:13:09.286Z,10.25
2017-10-13T05:14:19.593Z,10.3
2017-10-13T05:15:29.886Z,10.27
2017-10-13T05:16:40.174Z,10.2
2017-10-13T05:17:50.405Z,10.23
2017-10-13T05:19:00.708Z,10.24
2017-10-13T05:20:10.677Z,10.21
2017-10-13T05:21:20.652Z,10.24
2017-10-13T05:22:30.609Z,10.21
2017-10-13T05:23:41.154Z,10.25
2017-10-13T05:24:50.793Z,10.2
2017-10-13T05:26:01.080Z,10.23
2017-10-13T05:27:11.362Z,10.2
2017-10-13T05:28:21.649Z,10.28
2017-10-13T05:29:32.189Z,10.27
2017-10-13T05:30:42.492Z,10.24
2017-10-13T05:31:52.789Z,10.25
2017-10-13T05:33:02.761Z,10.25
2017-10-13T05:34:13.053Z,10.21
2017-10-13T05:35:23.602Z,10.18
2017-10-13T05:36:33.574Z,10.12
2017-10-13T05:37:43.551Z,10.1
2017-10-13T05:38:53.852Z,10.07
2017-10-13T05:40:03.819Z,10.05
2017-10-13T05:41:14.049Z,10.02
2017-10-13T05:42:24.341Z,10.03
2017-10-13T05:43:34.637Z,10
2017-10-13T05:44:44.597Z,10.03
2017-10-13T05:45:54.898Z,10.05
2017-10-13T05:47:05.452Z,10.06
2017-10-13T05:48:15.757Z,10
2017-10-13T05:49:26.052Z,9.99
2017-10-13T05:50:36.016Z,9.97
2017-10-13T05:51:46.321Z,9.99
2017-10-13T05:52:56.217Z,9.99
2017-10-13T05:54:06.544Z,9.97
2017-10-13T05:55:16.845Z,9.99
2017-10-13T05:56:27.173Z,10.03
2017-10-13T05:57:37.158Z,9.97
2017-10-13T05:58:47.726Z,9.97
2017-10-13T05:59:58.010Z,9.97
2017-10-13T06:01:08.308Z,9.99
2017-10-13T06:02:18.627Z,10
2017-10-13T06:03:28.942Z,9.95
2017-10-13T06:04:38.913Z,9.99
2017-10-13T06:05:48.900Z,10
2017-10-13T06:06:59.254Z,9.94
2017-10-13T06:08:09.569Z,9.95
2017-10-13T06:09:19.877Z,9.95
2017-10-13T06:10:30.123Z,9.95
2017-10-13T06:11:40.458Z,9.91
2017-10-13T06:12:50.764Z,9.94
2017-10-13T06:14:01.062Z,9.97
2017-10-13T06:15:11.031Z,9.97
2017-10-13T06:16:21.581Z,10.02
2017-10-13T06:17:31.884Z,9.95
2017-10-13T06:18:41.858Z,9.95
2017-10-13T06:19:51.820Z,10
2017-10-13T06:21:02.114Z,9.99
2017-10-13T06:22:12.672Z,10.02
2017-10-13T06:23:22.983Z,9.95
2017-10-13T06:24:32.961Z,10.02
2017-10-13T06:25:42.937Z,10
2017-10-13T06:26:53.233Z,10.05
2017-10-13T06:28:03.459Z,10.05
2017-10-13T06:29:13.431Z,10.02
2017-10-13T06:30:23.742Z,10.05
2017-10-13T06:31:34.035Z,10.07
2017-10-13T06:32:44.016Z,10.09
2017-10-13T06:33:58.732Z,10.1
2017-10-13T06:35:09.044Z,10.2
2017-10-13T06:36:19.350Z,10.21
2017-10-13T06:37:29.668Z,10.28
2017-10-13T06:38:39.985Z,10.21
2017-10-13T06:39:49.969Z,10.23
2017-10-13T06:40:59.944Z,10.23
2017-10-13T06:42:10.254Z,10.24
2017-10-13T06:43:20.063Z,10.28
2017-10-13T06:44:30.050Z,10.31
2017-10-13T06:45:40.023Z,10.15
2017-10-13T06:46:50.021Z,10.28
2017-10-13T06:47:59.993Z,10.25
2017-10-13T06:49:10.302Z,10.31
2017-10-13T06:50:19.977Z,10.38
2017-10-13T06:51:29.949Z,10.3
2017-10-13T06:52:40.239Z,10.2
2017-10-13T06:53:50.541Z,10.3
2017-10-13T06:55:00.548Z,10.2
2017-10-13T06:56:10.549Z,10.27
2017-10-13T06:57:20.911Z,10.38
2017-10-13T06:58:30.926Z,10.33
2017-10-13T06:59:41.228Z,10.31
2017-10-13T07:00:51.538Z,10.34
2017-10-13T07:02:01.853Z,10.38
2017-10-13T07:03:11.704Z,10.34
2017-10-13T07:04:21.680Z,10.39
2017-10-13T07:05:32.193Z,10.34
2017-10-13T07:06:42.162Z,10.33
2017-10-13T07:07:52.131Z,10.36
2017-10-13T07:09:02.431Z,10.34
2017-10-13T07:10:12.411Z,10.42
2017-10-13T07:11:22.494Z,10.45
2017-10-13T07:12:32.821Z,10.42
2017-10-13T07:13:43.240Z,10.48
2017-10-13T07:14:53.212Z,10.55
2017-10-13T07:16:03.499Z,10.58
2017-10-13T07:17:13.801Z,10.58
2017-10-13T07:18:23.789Z,10.57
2017-10-13T07:19:34.103Z,10.64
2017-10-13T07:20:44.078Z,10.64
2017-10-13T07:21:53.404Z,10.62
2017-10-13T07:23:03.736Z,10.62
2017-10-13T07:24:14.028Z,10.61
2017-10-13T07:25:24.328Z,10.72
2017-10-13T07:26:34.320Z,10.82
2017-10-13T07:27:44.626Z,10.79
2017-10-13T07:28:54.928Z,10.75
2017-10-13T07:30:05.243Z,10.87
2017-10-13T07:31:14.906Z,10.95
2017-10-13T07:32:25.210Z,10.95
2017-10-13T07:33:35.183Z,10.98
2017-10-13T07:34:45.512Z,11.07
2017-10-13T07:35:55.822Z,11.04
2017-10-13T07:37:05.792Z,11.1
2017-10-13T07:38:16.122Z,11.15
2017-10-13T07:39:26.463Z,11.23
2017-10-13T07:40:36.770Z,11.3
2017-10-13T07:41:46.416Z,11.33
2017-10-13T07:42:56.758Z,11.35
2017-10-13T07:44:07.085Z,11.43
2017-10-13T07:45:17.077Z,11.44
2017-10-13T07:46:27.053Z,11.51
2017-10-13T07:47:37.048Z,11.55
2017-10-13T07:48:47.053Z,11.68
2017-10-13T07:49:56.704Z,11.81
2017-10-13T07:51:07.026Z,11.93
2017-10-13T07:52:17.305Z,12
2017-10-13T07:53:26.989Z,12.03
2017-10-13T07:54:37.335Z,12.17
2017-10-13T07:55:47.653Z,12.25
2017-10-13T07:56:57.970Z,12.35
2017-10-13T07:58:08.268Z,12.37
2017-10-13T07:59:18.585Z,12.48
2017-10-13T08:00:28.921Z,12.65
2017-10-13T08:01:39.233Z,12.81
2017-10-13T08:02:49.538Z,12.86
2017-10-13T08:04:00.100Z,12.94
2017-10-13T08:05:09.759Z,12.91
2017-10-13T08:06:20.072Z,13.06
2017-10-13T08:07:30.057Z,13.24
2017-10-13T08:08:39.752Z,13.27
2017-10-13T08:09:50.064Z,13.36
2017-10-13T08:11:00.366Z,13.36
2017-10-13T08:12:10.892Z,13.36
2017-10-13T08:13:21.202Z,13.43
2017-10-13T08:14:31.202Z,13.64
2017-10-13T08:15:41.503Z,13.73
2017-10-13T08:16:51.823Z,13.7
2017-10-13T08:18:01.808Z,13.71
2017-10-13T08:19:12.110Z,13.6
2017-10-13T08:20:22.123Z,13.52
2017-10-13T08:21:32.430Z,13.6
2017-10-13T08:22:42.408Z,13.49
2017-10-13T08:23:52.713Z,13.43
2017-10-13T08:25:03.052Z,13.47
2017-10-13T08:26:13.417Z,13.54
2017-10-13T08:27:23.732Z,13.6
2017-10-13T08:28:33.719Z,13.67
2017-10-13T08:29:44.051Z,13.76
2017-10-13T08:30:54.375Z,13.89
2017-10-13T08:32:04.362Z,14.04
2017-10-13T08:33:14.352Z,14.04
2017-10-13T08:34:24.022Z,14.12
2017-10-13T08:35:34.335Z,14.2
2017-10-13T08:36:44.643Z,14.2
2017-10-13T08:37:54.652Z,14.05
2017-10-13T08:39:04.962Z,14.11
2017-10-13T08:40:15.292Z,14
2017-10-13T08:41:25.619Z,14.07
2017-10-13T08:42:35.600Z,14.07
2017-10-13T08:43:45.581Z,14.01
2017-10-13T08:44:55.896Z,14.23
2017-10-13T08:46:06.234Z,14.33
2017-10-13T08:47:16.777Z,14.38
2017-10-13T08:48:27.414Z,14.52
2017-10-13T08:49:37.720Z,14.61
2017-10-13T08:50:48.023Z,14.73
2017-10-13T08:51:58.365Z,14.78
2017-10-13T08:53:08.741Z,14.87
2017-10-13T08:54:19.123Z,14.86
2017-10-13T08:55:29.142Z,14.78
2017-10-13T08:56:39.471Z,14.85
2017-10-13T08:57:49.821Z,14.89
2017-10-13T08:59:00.126Z,14.94
2017-10-13T09:00:10.432Z,14.96
2017-10-13T09:01:20.753Z,14.85
2017-10-13T09:02:31.069Z,14.79
2017-10-13T09:03:41.377Z,14.77
2017-10-13T09:04:52.019Z,14.66
2017-10-13T09:06:02.357Z,14.68
2017-10-13T09:07:12.681Z,14.78
2017-10-13T09:08:23.011Z,14.77
2017-10-13T09:09:33.017Z,14.86
2017-10-13T09:10:42.999Z,14.89
2017-10-13T09:11:53.315Z,14.9
2017-10-13T09:13:03.296Z,14.78
2017-10-13T09:14:13.413Z,14.81
2017-10-13T09:15:23.754Z,14.93
2017-10-13T09:16:33.434Z,14.86
2017-10-13T09:17:43.769Z,14.89
2017-10-13T09:18:53.780Z,14.9
2017-10-13T09:20:04.087Z,14.85
2017-10-13T09:21:14.385Z,14.87
2017-10-13T09:22:24.365Z,14.79
2017-10-13T09:23:34.690Z,14.62
2017-10-13T09:24:44.992Z,14.62
2017-10-13T09:25:54.970Z,14.59
2017-10-13T09:27:05.281Z,14.61
2017-10-13T09:28:15.294Z,14.62
2017-10-13T09:29:25.626Z,14.63
2017-10-13T09:30:35.963Z,14.66
2017-10-13T09:31:46.290Z,14.74
2017-10-13T09:32:56.625Z,14.71
2017-10-13T09:34:06.931Z,14.85
2017-10-13T09:35:17.246Z,14.92
2017-10-13T09:36:27.222Z,15.05
2017-10-13T09:37:36.988Z,14.99
2017-10-13T09:38:47.347Z,14.99
2017-10-13T09:39:57.356Z,15.05
2017-10-13T09:41:07.396Z,15.1
2017-10-13T09:42:17.770Z,15.12
2017-10-13T09:43:28.119Z,15.3
2017-10-13T09:44:37.794Z,15.36
2017-10-13T09:45:48.140Z,15.41
2017-10-13T09:46:58.219Z,15.39
2017-10-13T09:48:08.264Z,15.75
2017-10-13T09:49:18.282Z,15.78
2017-10-13T09:50:28.626Z,15.75
2017-10-13T09:51:38.978Z,15.48
2017-10-13T09:52:49.307Z,15.45
2017-10-13T09:53:59.632Z,15.39
2017-10-13T09:55:09.309Z,15.35
2017-10-13T09:56:19.629Z,15.41
2017-10-13T09:57:29.646Z,15.45
2017-10-13T09:58:39.657Z,15.48
2017-10-13T09:59:49.992Z,15.45
2017-10-13T10:00:59.977Z,15.48
2017-10-13T10:02:10.287Z,15.62
2017-10-13T10:03:20.642Z,15.67
2017-10-13T10:04:30.650Z,15.7
2017-10-13T10:05:40.980Z,15.76
2017-10-13T10:06:51.311Z,15.8
2017-10-13T10:08:01.631Z,16.03
2017-10-13T10:09:11.624Z,16.1
2017-10-13T10:10:22.012Z,16.13
2017-10-13T10:11:32.345Z,16.24
2017-10-13T10:12:42.905Z,15.98
2017-10-13T10:13:52.921Z,15.83
2017-10-13T10:15:03.254Z,15.87
2017-10-13T10:16:13.603Z,15.88
2017-10-13T10:17:23.930Z,15.8
2017-10-13T10:18:34.277Z,15.88
2017-10-13T10:19:44.649Z,16
2017-10-13T10:20:54.993Z,16.03
2017-10-13T10:22:05.005Z,16.05
2017-10-13T10:23:15.004Z,16.29
2017-10-13T10:24:25.328Z,16.4
2017-10-13T10:25:35.320Z,16.39
2017-10-13T10:26:45.681Z,16.41
2017-10-13T10:27:56.058Z,16.39
2017-10-13T10:29:06.033Z,16.47
2017-10-13T10:30:16.381Z,16.37
2017-10-13T10:31:26.769Z,16.46
2017-10-13T10:32:36.761Z,16.47
2017-10-13T10:33:47.078Z,16.37
2017-10-13T10:34:57.382Z,16.46
2017-10-13T10:36:07.380Z,16.61
2017-10-13T10:37:17.402Z,16.89
2017-10-13T10:38:27.436Z,17.14
2017-10-13T10:39:37.476Z,17.27
2017-10-13T10:40:47.793Z,17.24
2017-10-13T10:41:58.191Z,17.56
2017-10-13T10:43:08.753Z,17.42
2017-10-13T10:44:18.467Z,17.23
2017-10-13T10:45:28.824Z,17.01
2017-10-13T10:46:38.822Z,16.84
2017-10-13T10:47:49.167Z,16.66
2017-10-13T10:48:59.510Z,16.62
2017-10-13T10:50:09.857Z,16.76
2017-10-13T10:51:19.560Z,16.89
2017-10-13T10:52:29.532Z,16.92
2017-10-13T10:53:39.831Z,17.05
2017-10-13T10:54:49.832Z,17.1
2017-10-13T10:56:00.219Z,17.14
2017-10-13T10:57:10.563Z,17.41
2017-10-13T10:58:20.875Z,17.49
2017-10-13T10:59:30.855Z,17.63
2017-10-13T11:00:40.836Z,17.66
2017-10-13T11:01:51.232Z,17.6
2017-10-13T11:03:01.564Z,17.56
2017-10-13T11:04:11.890Z,17.34
2017-10-13T11:05:22.198Z,17.2
2017-10-13T11:06:32.544Z,17.23
2017-10-13T11:07:42.203Z,17.41
2017-10-13T11:08:52.848Z,17.24
2017-10-13T11:10:03.485Z,17.22
2017-10-13T11:11:13.815Z,16.98
2017-10-13T11:12:23.874Z,16.87
2017-10-13T11:13:33.960Z,16.86
2017-10-13T11:14:44.295Z,16.76
2017-10-13T11:15:54.618Z,16.61
2017-10-13T11:17:04.615Z,16.51
2017-10-13T11:18:14.916Z,16.54
2017-10-13T11:19:24.898Z,16.47
2017-10-13T11:20:35.197Z,16.44
2017-10-13T11:21:45.509Z,16.41
2017-10-13T11:22:55.836Z,16.41
2017-10-13T11:24:06.173Z,16.41
2017-10-13T11:25:16.478Z,16.4
2017-10-13T11:26:26.791Z,16.5
2017-10-13T11:27:37.088Z,16.46
2017-10-13T11:28:47.085Z,16.4
2017-10-13T11:29:57.062Z,16.5
2017-10-13T11:31:07.366Z,16.49
2017-10-13T11:32:17.347Z,16.5
2017-10-13T11:33:27.658Z,16.58
2017-10-13T11:34:37.957Z,16.41
2017-10-13T11:35:48.624Z,16.51
2017-10-13T11:36:58.599Z,16.84
2017-10-13T11:38:08.920Z,17.09
2017-10-13T11:39:18.589Z,17.32
2017-10-13T11:40:28.582Z,17.28
2017-10-13T11:41:38.883Z,17.31
2017-10-13T11:42:49.184Z,17.31
2017-10-13T11:43:59.174Z,17.16
2017-10-13T11:45:09.156Z,17.04
2017-10-13T11:46:18.819Z,17.12
2017-10-13T11:47:29.132Z,17.24
2017-10-13T11:48:39.433Z,17.41
2017-10-13T11:49:49.752Z,17.65
2017-10-13T11:51:00.063Z,17.65
2017-10-13T11:52:10.412Z,17.8
2017-10-13T11:53:20.718Z,18.06
2017-10-13T12:02:23.508Z,18.37
2017-10-13T12:03:33.812Z,18.43
2017-10-13T12:04:44.154Z,18.57
2017-10-13T12:05:54.693Z,18.74
2017-10-13T12:07:04.688Z,18.55
2017-10-13T12:08:14.909Z,18.49
2017-10-13T12:09:25.222Z,18.46
2017-10-13T12:10:35.547Z,18.34
2017-10-13T12:11:45.874Z,18.31
2017-10-13T12:12:55.864Z,18.39
2017-10-13T12:14:06.438Z,18.27
2017-10-13T12:15:16.081Z,18.36
2017-10-13T12:16:26.053Z,18.18
2017-10-13T12:17:36.355Z,17.87
2017-10-13T12:18:46.728Z,17.71
2017-10-13T12:19:56.959Z,17.71
2017-10-13T12:21:07.258Z,17.52
2017-10-13T12:22:17.242Z,17.1
2017-10-13T12:23:27.247Z,17.12
2017-10-13T12:24:37.571Z,16.95
2017-10-13T12:25:48.132Z,16.98
2017-10-13T12:26:58.440Z,16.97
2017-10-13T12:28:08.100Z,17.09
2017-10-13T12:29:18.077Z,17.16
2017-10-13T12:30:28.057Z,16.89
2017-10-13T12:31:38.655Z,16.74
2017-10-13T12:32:48.975Z,16.65
2017-10-13T12:33:59.294Z,16.61
2017-10-13T12:35:09.604Z,16.43
2017-10-13T12:36:19.931Z,16.47
2017-10-13T12:37:30.492Z,16.41
2017-10-13T12:38:40.792Z,16.46
2017-10-13T12:39:51.092Z,16.46
2017-10-13T12:41:01.072Z,16.46
2017-10-13T12:42:11.048Z,16.54
2017-10-13T12:43:21.654Z,16.49
2017-10-13T12:44:31.639Z,16.59
2017-10-13T12:45:41.627Z,16.65
2017-10-13T12:46:51.964Z,16.69
2017-10-13T12:48:01.954Z,16.77
2017-10-13T12:49:12.210Z,16.79
2017-10-13T12:50:22.512Z,16.73
2017-10-13T12:51:32.492Z,16.74
2017-10-13T12:52:42.780Z,16.86
2017-10-13T12:53:52.774Z,16.87
2017-10-13T12:55:03.060Z,16.97
2017-10-13T12:56:13.031Z,16.8
2017-10-13T12:57:23.339Z,16.84
2017-10-13T12:58:33.661Z,16.74
2017-10-13T12:59:43.986Z,16.73
2017-10-13T13:00:54.223Z,16.72
2017-10-13T13:02:04.526Z,16.66
2017-10-13T13:03:14.841Z,16.61
2017-10-13T13:04:25.145Z,16.64
2017-10-13T13:05:35.124Z,16.58
2017-10-13T13:06:45.677Z,16.58
2017-10-13T13:07:55.680Z,16.64
2017-10-13T13:09:05.975Z,16.69
2017-10-13T13:10:16.272Z,16.86
2017-10-13T13:11:26.242Z,16.83
2017-10-13T13:12:36.486Z,16.98
2017-10-13T13:13:46.801Z,17.16
2017-10-13T13:14:57.122Z,17.27
2017-10-13T13:16:07.433Z,17.32
2017-10-13T13:17:16.755Z,17.3
2017-10-13T13:18:27.102Z,17.2
2017-10-13T13:19:37.079Z,17.16
2017-10-13T13:20:46.787Z,17.22
2017-10-13T13:21:57.106Z,17.32
2017-10-13T13:23:06.764Z,17.24
2017-10-13T13:24:17.084Z,17.1
2017-10-13T13:25:27.447Z,16.99
2017-10-13T13:26:37.762Z,17.01
2017-10-13T13:27:47.747Z,16.97
2017-10-13T13:28:58.061Z,17.19
2017-10-13T13:30:08.290Z,17.14
2017-10-13T13:31:18.281Z,17.16
2017-10-13T13:32:28.627Z,17.12
2017-10-13T13:33:38.929Z,17.34
2017-10-13T13:34:49.244Z,17.46
2017-10-13T13:35:59.476Z,17.66
2017-10-13T13:37:09.780Z,17.9
2017-10-13T13:38:18.456Z,17.93
2017-10-13T13:39:28.753Z,17.97
2017-10-13T13:40:39.071Z,17.87
2017-10-13T13:41:49.312Z,17.88
2017-10-13T13:42:59.617Z,17.95
2017-10-13T13:44:09.978Z,17.94
2017-10-13T13:45:19.956Z,17.8
2017-10-13T13:46:29.622Z,17.71
2017-10-13T13:47:39.855Z,17.65
2017-10-13T13:48:50.156Z,17.6
2017-10-13T13:50:00.472Z,17.54
2017-10-13T13:51:10.461Z,17.42
2017-10-13T13:52:20.116Z,17.3
2017-10-13T13:53:30.675Z,17.16
2017-10-13T13:54:40.670Z,17.04
2017-10-13T13:55:50.655Z,16.97
2017-10-13T13:57:00.625Z,16.98
2017-10-13T13:58:10.933Z,16.97
2017-10-13T13:59:21.504Z,16.92
2017-10-13T14:00:31.828Z,16.98
2017-10-13T14:01:42.133Z,17.02
2017-10-13T14:02:52.442Z,17.02
2017-10-13T14:04:02.746Z,17.13
2017-10-13T14:05:13.299Z,17.24
2017-10-13T14:06:23.284Z,17.39
2017-10-13T14:07:33.253Z,17.52
2017-10-13T14:08:43.556Z,17.47
2017-10-13T14:09:53.882Z,17.54
2017-10-13T14:11:04.439Z,17.38
2017-10-13T14:12:14.749Z,17.32
2017-10-13T14:13:25.048Z,17.22
2017-10-13T14:14:35.367Z,17.1
2017-10-13T14:15:45.027Z,17.12
2017-10-13T14:16:55.660Z,17.01
2017-10-13T14:18:05.974Z,17.13
2017-10-13T14:19:15.634Z,16.97
2017-10-13T14:20:25.928Z,16.95
2017-10-13T14:21:35.901Z,16.98
2017-10-13T14:22:46.508Z,16.95
2017-10-13T14:23:56.842Z,16.76
2017-10-13T14:25:07.172Z,16.8
2017-10-13T14:26:17.490Z,16.74
2017-10-13T14:27:27.472Z,16.74
2017-10-13T14:28:38.044Z,16.64
2017-10-13T14:29:48.383Z,16.65
2017-10-13T14:30:58.701Z,16.68
2017-10-13T14:32:09.032Z,16.59
2017-10-13T14:33:19.365Z,16.54
2017-10-13T14:34:29.924Z,16.59
2017-10-13T14:35:40.228Z,16.57
2017-10-13T14:36:50.543Z,16.57
2017-10-13T14:38:00.831Z,16.55
2017-10-13T14:39:11.140Z,16.59
2017-10-13T14:40:21.415Z,16.54
2017-10-13T14:41:31.718Z,16.49
2017-10-13T14:42:41.703Z,16.49
2017-10-13T14:43:51.694Z,16.44
2017-10-13T14:45:02.005Z,16.44
2017-10-13T14:46:12.562Z,16.54
2017-10-13T14:47:22.871Z,16.49
2017-10-13T14:48:32.853Z,16.5
2017-10-13T14:49:42.533Z,16.62
2017-10-13T14:50:52.526Z,16.57
2017-10-13T14:52:02.807Z,16.51
2017-10-13T14:53:13.125Z,16.57
2017-10-13T14:54:23.423Z,16.68
2017-10-13T14:55:33.723Z,16.66
2017-10-13T14:56:44.039Z,16.72
2017-10-13T14:57:54.604Z,16.73
2017-10-13T14:59:04.903Z,16.76
2017-10-13T15:00:15.242Z,16.83
2017-10-13T15:01:25.203Z,16.76
2017-10-13T15:02:35.508Z,16.72
2017-10-13T15:03:45.756Z,16.73
2017-10-13T15:04:55.397Z,16.76
2017-10-13T15:06:05.714Z,16.72
2017-10-13T15:07:16.044Z,16.74
2017-10-13T15:08:26.338Z,16.79
2017-10-13T15:09:36.238Z,16.8
2017-10-13T15:10:46.567Z,16.8
2017-10-13T15:11:56.566Z,16.72
2017-10-13T15:13:06.531Z,16.64
2017-10-13T15:14:16.831Z,16.54
2017-10-13T15:15:27.391Z,16.47
2017-10-13T15:16:37.696Z,16.51
2017-10-13T15:17:47.026Z,16.5